Time;durP1;ratioP1;P1;durP2;ratioP2;P2;SDS_P1;SDS_P2;PMS_P1;PMS_P2;Temp;Humidity;BMP_temperature;BMP_pressure;BME280_temperature;BME280_humidity;BME280_pressure;Samples;Min_cycle;Max_cycle;Signal;HPM_P1;HPM_P2
2023/03/13 00:01:33;;;;;;;2.95;1.83;;;-3.20;99.90;;;;;;5027122;28;20037;-83
2023/03/13 00:04:00;;;;;;;2.20;1.38;;;-3.20;99.90;;;;;;5006369;28;20152;-83
2023/03/13 00:06:31;;;;;;;5.18;1.73;;;-3.30;99.90;;;;;;5015655;28;20390;-84
2023/03/13 00:08:59;;;;;;;4.35;1.73;;;-3.20;99.90;;;;;;5016334;28;20044;-82
2023/03/13 00:11:25;;;;;;;2.35;1.58;;;-3.20;99.90;;;;;;5026167;28;20029;-82
2023/03/13 00:14:00;;;;;;;1.80;1.13;;;-3.20;99.90;;;;;;5021087;28;20387;-83
2023/03/13 00:16:26;;;;;;;2.22;1.13;;;-3.20;99.90;;;;;;5025816;28;20482;-83
2023/03/13 00:18:54;;;;;;;3.15;1.75;;;-3.20;99.90;;;;;;5021238;28;20081;-83
2023/03/13 00:21:22;;;;;;;2.67;2.47;;;-3.20;99.90;;;;;;5022697;28;20124;-83
2023/03/13 00:23:49;;;;;;;5.50;1.30;;;-3.20;99.90;;;;;;5022549;28;20084;-82
2023/03/13 00:26:17;;;;;;;6.90;1.40;;;-3.30;99.90;;;;;;5009696;28;20113;-82
2023/03/13 00:28:44;;;;;;;1.83;1.23;;;-3.30;99.90;;;;;;5022269;28;20510;-80
2023/03/13 00:31:17;;;;;;;1.23;1.13;;;-3.30;99.90;;;;;;5018804;28;20030;-82
2023/03/13 00:33:45;;;;;;;1.38;1.27;;;-3.30;99.90;;;;;;5015314;28;20026;-81
2023/03/13 00:36:14;;;;;;;1.20;1.10;;;-3.40;99.90;;;;;;5013642;28;20539;-82
2023/03/13 00:38:41;;;;;;;2.55;1.00;;;-3.40;99.90;;;;;;5014714;28;20033;-81
2023/03/13 00:41:13;;;;;;;2.53;1.27;;;-3.40;99.90;;;;;;5015636;28;20040;-81
2023/03/13 00:43:40;;;;;;;2.22;1.15;;;-3.50;99.90;;;;;;5014103;28;20029;-81
2023/03/13 00:46:07;;;;;;;;;;;-3.50;99.90;;;;;;5015635;28;20034;-81
2023/03/13 00:48:55;;;;;;;2.45;1.50;;;-3.50;99.90;;;;;;5015443;28;20386;-81
2023/03/13 00:51:25;;;;;;;2.00;1.52;;;-3.50;99.90;;;;;;5015183;28;20117;-81
2023/03/13 00:53:52;;;;;;;1.25;1.00;;;-3.50;99.90;;;;;;5014313;28;20029;-82
2023/03/13 00:56:19;;;;;;;0.73;0.73;;;-3.50;99.90;;;;;;5015289;28;20100;-82
2023/03/13 00:58:46;;;;;;;1.00;0.95;;;-3.40;99.90;;;;;;5013434;28;20046;-82
2023/03/13 01:01:19;;;;;;;2.47;1.58;;;-3.40;99.90;;;;;;5011408;28;20080;-83
2023/03/13 01:03:50;;;;;;;1.30;1.20;;;-3.40;99.90;;;;;;5002548;28;20026;-82
2023/03/13 01:06:19;;;;;;;2.10;1.65;;;-3.40;99.90;;;;;;5016579;28;20018;-82
2023/03/13 01:08:46;;;;;;;3.70;1.15;;;-3.40;99.90;;;;;;5018836;28;20030;-80
2023/03/13 01:11:14;;;;;;;3.20;1.20;;;-3.30;99.90;;;;;;5017302;28;20540;-81
2023/03/13 01:13:41;;;;;;;1.23;1.13;;;-3.30;99.90;;;;;;5015531;28;20505;-82
2023/03/13 01:16:10;;;;;;;3.80;1.52;;;-3.30;99.90;;;;;;5015790;28;20026;-80
2023/03/13 01:18:37;;;;;;;2.83;2.05;;;-3.30;99.90;;;;;;5016968;28;20025;-82
2023/03/13 01:21:03;;;;;;;2.88;1.75;;;-3.30;99.90;;;;;;5021258;28;20030;-82
2023/03/13 01:23:30;;;;;;;7.60;2.20;;;-3.40;99.90;;;;;;5021799;28;20052;-82
2023/03/13 01:25:56;;;;;;;6.70;3.33;;;-3.50;99.90;;;;;;5028075;28;20028;-83
2023/03/13 01:28:37;;;;;;;7.47;3.17;;;-3.50;99.90;;;;;;5026628;28;20467;-81
2023/03/13 01:31:28;;;;;;;11.35;5.60;;;-3.60;99.90;;;;;;5008209;28;20260;-83
2023/03/13 01:33:57;;;;;;;11.82;6.07;;;-3.60;99.90;;;;;;5010291;28;20066;-80
2023/03/13 01:36:23;;;;;;;19.23;8.23;;;-3.70;99.90;;;;;;5015325;28;20076;-82
2023/03/13 01:38:51;;;;;;;12.15;6.97;;;-3.80;99.90;;;;;;5015075;28;20036;-83
2023/03/13 01:41:18;;;;;;;19.23;8.65;;;-3.80;99.90;;;;;;5023888;28;20034;-81
2023/03/13 01:43:45;;;;;;;18.88;9.50;;;-3.90;99.90;;;;;;5014011;28;20020;-83
2023/03/13 01:46:17;;;;;;;13.93;7.63;;;-3.90;99.90;;;;;;5014343;28;20026;-84
2023/03/13 01:49:17;;;;;;;13.32;7.97;;;-3.90;99.90;;;;;;5013000;28;20731;-81
2023/03/13 01:51:48;;;;;;;10.73;7.07;;;-3.90;99.90;;;;;;5005961;28;20599;-82
2023/03/13 01:54:38;;;;;;;14.48;8.43;;;-3.90;99.90;;;;;;5026347;28;20042;-82
2023/03/13 01:57:05;;;;;;;15.65;7.70;;;-3.90;99.90;;;;;;5021982;28;20029;-83
2023/03/13 01:59:42;;;;;;;13.32;8.63;;;-3.90;99.90;;;;;;5013135;28;20499;-80
2023/03/13 02:02:08;;;;;;;14.70;8.63;;;-4.00;99.90;;;;;;5011671;28;20050;-82
2023/03/13 02:04:42;;;;;;;13.30;6.82;;;-4.00;99.90;;;;;;5013435;28;20022;-83
2023/03/13 02:07:15;;;;;;;14.57;11.43;;;-4.00;99.90;;;;;;5010853;28;20037;-81
2023/03/13 02:09:44;;;;;;;18.98;12.90;;;-4.00;99.90;;;;;;5011997;28;20044;-80
2023/03/13 02:12:13;;;;;;;25.17;13.18;;;-4.00;99.90;;;;;;5012249;28;20095;-82
2023/03/13 02:14:42;;;;;;;25.58;13.88;;;-4.00;99.90;;;;;;5013158;28;20557;-81
2023/03/13 02:17:09;;;;;;;29.73;16.13;;;-4.00;99.90;;;;;;5012853;28;20125;-82
2023/03/13 02:19:50;;;;;;;31.63;18.08;;;-4.10;99.90;;;;;;5014138;28;20585;-80
2023/03/13 02:22:27;;;;;;;39.13;19.85;;;-4.00;99.90;;;;;;5014794;28;20033;-82
2023/03/13 02:24:59;;;;;;;36.28;19.70;;;-4.10;99.90;;;;;;5011887;28;20124;-82
2023/03/13 02:27:25;;;;;;;31.63;19.13;;;-4.10;99.90;;;;;;5013407;28;20434;-80
2023/03/13 02:29:52;;;;;;;36.97;20.20;;;-4.10;99.90;;;;;;5012620;28;20026;-82
2023/03/13 02:32:18;;;;;;;42.85;22.70;;;-4.10;99.90;;;;;;5013084;28;20665;-81
2023/03/13 02:34:47;;;;;;;41.25;24.55;;;-4.10;99.90;;;;;;5012479;28;20068;-80
2023/03/13 02:37:14;;;;;;;40.72;23.15;;;-4.10;99.90;;;;;;5012319;28;20029;-80
2023/03/13 02:39:47;;;;;;;41.60;23.77;;;-4.20;99.90;;;;;;5005995;28;20368;-81
2023/03/13 02:42:14;;;;;;;40.67;24.77;;;-4.10;99.90;;;;;;5012726;28;20030;-81
2023/03/13 02:44:43;;;;;;;32.80;22.50;;;-4.20;99.90;;;;;;5014420;28;20026;-81
2023/03/13 02:47:09;;;;;;;31.02;19.70;;;-4.20;99.90;;;;;;5012467;28;20544;-81
2023/03/13 02:49:35;;;;;;;30.38;20.23;;;-4.20;99.90;;;;;;5013598;28;20022;-81
2023/03/13 02:52:16;;;;;;;24.65;15.25;;;-4.20;99.90;;;;;;5021289;28;20030;-81
2023/03/13 02:54:44;;;;;;;19.42;12.68;;;-4.20;99.90;;;;;;5015809;28;20148;-82
2023/03/13 02:57:11;;;;;;;16.73;10.05;;;-4.20;99.90;;;;;;5016605;28;20098;-81
2023/03/13 02:59:36;;;;;;;14.50;11.18;;;-4.20;99.90;;;;;;5014998;28;20499;-81
2023/03/13 03:02:03;;;;;;;13.80;9.90;;;-4.20;99.90;;;;;;5016419;28;20044;-82
2023/03/13 03:04:29;;;;;;;13.55;8.35;;;-4.20;99.90;;;;;;5013782;28;20510;-83
2023/03/13 03:06:55;;;;;;;13.50;8.30;;;-4.20;99.90;;;;;;5018379;28;20022;-82
2023/03/13 03:09:22;;;;;;;9.30;7.60;;;-4.30;99.90;;;;;;5029497;28;20101;-82
2023/03/13 03:11:48;;;;;;;9.93;6.93;;;-4.20;99.90;;;;;;5026862;28;20021;-81
2023/03/13 03:14:15;;;;;;;10.52;6.70;;;-4.30;99.90;;;;;;5023550;28;20072;-81
2023/03/13 03:16:41;;;;;;;6.88;5.78;;;-4.30;99.90;;;;;;5028715;28;20022;-81
2023/03/13 03:19:07;;;;;;;7.78;5.07;;;-4.30;99.90;;;;;;5016046;28;20033;-81
2023/03/13 03:21:34;;;;;;;6.82;4.57;;;-4.30;99.90;;;;;;5034261;28;20037;-81
2023/03/13 03:24:00;;;;;;;7.07;4.40;;;-4.30;99.90;;;;;;5033742;28;20064;-82
2023/03/13 03:26:26;;;;;;;6.82;4.15;;;-4.30;99.90;;;;;;5032605;28;20024;-82
2023/03/13 03:28:52;;;;;;;5.15;3.35;;;-4.30;99.90;;;;;;5015607;28;20495;-81
2023/03/13 03:31:18;;;;;;;6.72;3.45;;;-4.30;99.90;;;;;;5015879;28;20042;-82
2023/03/13 03:33:44;;;;;;;11.57;3.65;;;-4.30;99.90;;;;;;5016768;28;20536;-82
2023/03/13 03:36:13;;;;;;;5.70;2.88;;;-4.30;99.90;;;;;;5017731;28;20064;-82
2023/03/13 03:38:40;;;;;;;6.13;3.38;;;-4.40;99.90;;;;;;5017811;28;20549;-83
2023/03/13 03:41:10;;;;;;;2.80;2.40;;;-4.40;99.90;;;;;;5021901;28;20030;-81
2023/03/13 03:43:35;;;;;;;2.95;2.53;;;-4.40;99.90;;;;;;5018980;28;20021;-80
2023/03/13 03:46:01;;;;;;;3.78;2.35;;;-4.40;99.90;;;;;;5017001;28;20487;-82
2023/03/13 03:48:38;;;;;;;;;;;;;;;;;;;;;
2023/03/13 03:51:05;;;;;;;3.10;2.50;;;-4.40;99.90;;;;;;5020209;28;20025;-81
2023/03/13 03:53:31;;;;;;;4.10;2.20;;;-4.40;99.90;;;;;;5026242;28;20566;-82
2023/03/13 03:55:58;;;;;;;3.25;1.83;;;-4.40;99.90;;;;;;5015692;28;20053;-82
2023/03/13 03:58:23;;;;;;;3.08;1.70;;;-4.40;99.90;;;;;;5013865;28;20026;-82
2023/03/13 04:00:49;;;;;;;2.50;1.20;;;-4.40;99.90;;;;;;5013158;28;20077;-82
2023/03/13 04:03:15;;;;;;;2.63;1.30;;;-4.40;99.90;;;;;;5015418;28;20022;-82
2023/03/13 04:05:42;;;;;;;2.15;1.42;;;-4.40;99.90;;;;;;5014733;28;20025;-83
2023/03/13 04:08:10;;;;;;;2.08;1.40;;;-4.40;99.90;;;;;;5014165;28;20063;-82
2023/03/13 04:10:36;;;;;;;1.95;1.52;;;-4.40;99.90;;;;;;5014180;28;20030;-82
2023/03/13 04:13:02;;;;;;;3.00;2.13;;;-4.40;99.90;;;;;;5016032;28;20029;-82
2023/03/13 04:15:28;;;;;;;1.40;0.90;;;-4.40;99.90;;;;;;5015487;28;20025;-82
2023/03/13 04:17:54;;;;;;;2.20;1.20;;;-4.50;99.90;;;;;;5015596;28;20083;-84
2023/03/13 04:20:20;;;;;;;2.70;1.58;;;-4.40;99.90;;;;;;5015353;28;20391;-82
2023/03/13 04:22:45;;;;;;;1.60;1.30;;;-4.50;99.90;;;;;;5016778;28;20049;-82
2023/03/13 04:25:11;;;;;;;1.98;1.60;;;-4.40;99.90;;;;;;5018800;28;20124;-82
2023/03/13 04:27:37;;;;;;;3.08;2.00;;;-4.50;99.90;;;;;;5015124;28;20030;-83
2023/03/13 04:30:04;;;;;;;4.05;1.90;;;-4.50;99.90;;;;;;5014471;28;20539;-83
2023/03/13 04:32:38;;;;;;;2.42;1.75;;;-4.40;99.90;;;;;;5020241;28;20036;-83
2023/03/13 04:35:12;;;;;;;3.58;1.98;;;-4.40;99.90;;;;;;5015173;28;20491;-81
2023/03/13 04:37:38;;;;;;;3.47;1.90;;;-4.50;99.90;;;;;;5015727;28;20117;-83
2023/03/13 04:40:05;;;;;;;4.00;1.83;;;-4.50;99.90;;;;;;5015325;28;20057;-85
2023/03/13 04:42:31;;;;;;;;;;;-4.50;99.90;;;;;;5015473;28;20044;-81
2023/03/13 04:44:57;;;;;;;4.68;2.08;;;-4.40;99.90;;;;;;5029210;28;19987;-82
2023/03/13 04:47:23;;;;;;;2.60;1.50;;;-4.50;99.90;;;;;;5015318;28;20639;-83
2023/03/13 04:49:49;;;;;;;3.60;2.47;;;-4.50;99.90;;;;;;5014970;28;20513;-83
2023/03/13 04:52:15;;;;;;;4.07;2.30;;;-4.50;99.90;;;;;;5014239;28;20064;-84
2023/03/13 04:54:41;;;;;;;3.47;2.13;;;-4.50;99.90;;;;;;5015614;28;20050;-84
2023/03/13 04:57:07;;;;;;;3.47;1.80;;;-4.50;99.90;;;;;;5015231;28;20037;-84
2023/03/13 04:59:33;;;;;;;3.45;1.92;;;-4.50;99.90;;;;;;5013649;28;20403;-84
2023/03/13 05:01:59;;;;;;;1.60;1.50;;;-4.40;99.90;;;;;;5015612;28;20045;-85
2023/03/13 05:04:24;;;;;;;3.20;2.03;;;-4.40;99.90;;;;;;5020471;28;20014;-84
2023/03/13 05:06:50;;;;;;;1.67;1.58;;;-4.40;99.90;;;;;;5022052;28;20022;-85
2023/03/13 05:09:16;;;;;;;3.85;2.08;;;-4.40;99.90;;;;;;5017344;28;20029;-84
2023/03/13 05:11:42;;;;;;;3.55;2.35;;;-4.40;99.90;;;;;;5015395;28;20121;-84
2023/03/13 05:14:10;;;;;;;2.78;1.77;;;-4.30;99.90;;;;;;5013387;28;20037;-84
2023/03/13 05:16:37;;;;;;;4.03;2.10;;;-4.30;99.90;;;;;;5017154;28;20022;-84
2023/03/13 05:19:03;;;;;;;;;;;-4.40;99.90;;;;;;5016282;28;20038;-84
2023/03/13 05:21:29;;;;;;;2.58;2.35;;;-4.30;99.90;;;;;;5015222;28;19913;-84
2023/03/13 05:23:56;;;;;;;3.53;2.00;;;-4.40;99.90;;;;;;5012449;28;20018;-84
2023/03/13 05:26:22;;;;;;;3.47;1.83;;;-4.30;99.90;;;;;;5018721;28;20032;-84
2023/03/13 05:28:48;;;;;;;2.17;1.50;;;-4.30;99.90;;;;;;5018468;28;20078;-84
2023/03/13 05:31:14;;;;;;;2.13;1.48;;;-4.30;99.90;;;;;;5006022;28;20026;-83
2023/03/13 05:33:42;;;;;;;6.72;3.70;;;-4.30;99.90;;;;;;5014328;28;20080;-84
2023/03/13 05:36:08;;;;;;;3.55;2.13;;;-4.20;99.90;;;;;;5024904;28;20026;-83
2023/03/13 05:38:34;;;;;;;2.30;1.85;;;-4.10;99.90;;;;;;5036630;28;20068;-85
2023/03/13 05:41:00;;;;;;;2.25;1.45;;;-4.00;99.90;;;;;;5034570;28;20041;-83
2023/03/13 05:43:26;;;;;;;2.25;1.55;;;-4.00;99.90;;;;;;5019579;28;20030;-85
2023/03/13 05:45:52;;;;;;;4.60;2.25;;;-4.00;99.90;;;;;;5012796;28;20057;-84
2023/03/13 05:48:17;;;;;;;3.83;2.58;;;-4.00;99.90;;;;;;5015398;28;20499;-84
2023/03/13 05:50:43;;;;;;;6.25;2.25;;;-4.00;99.90;;;;;;5020315;28;20452;-85
2023/03/13 05:53:09;;;;;;;5.82;2.22;;;-4.00;99.90;;;;;;5028380;28;20025;-84
2023/03/13 05:55:38;;;;;;;3.40;1.80;;;-3.90;99.90;;;;;;5033352;28;20049;-83
2023/03/13 05:58:04;;;;;;;1.85;1.50;;;-3.90;99.90;;;;;;5035999;28;20034;-84
2023/03/13 06:00:30;;;;;;;3.72;2.10;;;-3.90;99.90;;;;;;5036220;28;20089;-83
2023/03/13 06:02:56;;;;;;;5.15;2.75;;;-3.80;99.90;;;;;;5029384;28;20049;-83
2023/03/13 06:05:23;;;;;;;3.78;2.10;;;-3.80;99.90;;;;;;5027429;28;20053;-84
2023/03/13 06:07:50;;;;;;;9.75;2.33;;;-3.70;99.90;;;;;;5020059;28;20030;-83
2023/03/13 06:10:16;;;;;;;4.78;1.95;;;-3.70;99.90;;;;;;5025387;28;20030;-84
2023/03/13 06:12:42;;;;;;;7.43;2.33;;;-3.60;99.90;;;;;;5024208;28;20026;-85
2023/03/13 06:15:08;;;;;;;5.57;2.92;;;-3.60;99.90;;;;;;5021170;28;20040;-83
2023/03/13 06:17:35;;;;;;;7.43;3.08;;;-3.60;99.90;;;;;;5017685;28;20018;-84
2023/03/13 06:20:04;;;;;;;5.30;1.83;;;-3.50;99.90;;;;;;5013983;28;20045;-84
2023/03/13 06:22:30;;;;;;;5.75;2.00;;;-3.50;99.90;;;;;;5015946;28;20034;-83
2023/03/13 06:24:56;;;;;;;5.10;1.70;;;-3.50;99.90;;;;;;5030776;28;20024;-82
2023/03/13 06:27:21;;;;;;;3.90;1.60;;;-3.50;99.90;;;;;;5032369;28;20490;-84
2023/03/13 06:29:47;;;;;;;4.07;1.85;;;-3.40;99.90;;;;;;5028670;28;20383;-84
2023/03/13 06:32:13;;;;;;;5.75;2.25;;;-3.40;99.90;;;;;;5034227;28;20033;-83
2023/03/13 06:34:39;;;;;;;5.57;1.70;;;-3.40;99.90;;;;;;5017969;28;20018;-83
2023/03/13 06:37:05;;;;;;;3.65;2.13;;;-3.30;99.90;;;;;;5018200;28;20010;-84
2023/03/13 06:39:31;;;;;;;7.32;2.10;;;-3.20;99.90;;;;;;5029501;28;20021;-84
2023/03/13 06:41:58;;;;;;;5.82;2.20;;;-3.10;99.90;;;;;;5026612;28;20030;-84
2023/03/13 06:44:24;;;;;;;5.35;2.00;;;-3.00;99.90;;;;;;5024960;28;20068;-83
2023/03/13 06:46:50;;;;;;;3.38;1.98;;;-2.90;99.90;;;;;;5030643;28;20029;-84
2023/03/13 06:49:16;;;;;;;4.15;1.73;;;-2.80;99.90;;;;;;5033527;28;20022;-85
2023/03/13 06:51:41;;;;;;;6.20;2.03;;;-2.70;99.90;;;;;;5019881;28;20030;-83
2023/03/13 06:54:07;;;;;;;3.88;1.73;;;-2.70;99.90;;;;;;5015205;28;20022;-83
2023/03/13 06:56:33;;;;;;;5.85;2.20;;;-2.60;99.90;;;;;;5015102;28;20073;-84
2023/03/13 06:59:01;;;;;;;3.13;1.83;;;-2.60;99.90;;;;;;5015026;28;20030;-84
2023/03/13 07:01:30;;;;;;;1.98;1.67;;;-2.60;99.90;;;;;;5015077;28;20088;-84
2023/03/13 07:03:56;;;;;;;6.43;2.10;;;-2.60;99.90;;;;;;5013739;28;20506;-85
2023/03/13 07:06:22;;;;;;;4.63;2.25;;;-2.60;99.90;;;;;;5015388;28;20026;-85
2023/03/13 07:08:48;;;;;;;4.80;1.63;;;-2.50;99.90;;;;;;5024777;28;20136;-85
2023/03/13 07:11:14;;;;;;;3.78;1.67;;;-2.50;99.90;;;;;;5018124;28;20030;-85
2023/03/13 07:13:40;;;;;;;4.07;2.13;;;-2.30;99.90;;;;;;5010740;28;20376;-83
2023/03/13 07:16:12;;;;;;;3.80;1.75;;;-2.00;99.90;;;;;;5014271;28;20034;-84
2023/03/13 07:18:52;;;;;;;2.17;1.35;;;-1.70;99.90;;;;;;5024475;28;20025;-83
2023/03/13 07:21:21;;;;;;;12.43;5.53;;;-1.40;99.90;;;;;;5019128;28;20099;-84
2023/03/13 07:23:51;;;;;;;4.75;1.63;;;-1.10;99.90;;;;;;5022098;28;20060;-83
2023/03/13 07:26:37;;;;;;;8.32;2.25;;;-0.90;99.90;;;;;;5025069;28;20113;-85
2023/03/13 07:29:15;;;;;;;3.57;1.77;;;-0.60;99.90;;;;;;5005487;28;20038;-83
2023/03/13 07:31:40;;;;;;;;;;;-0.40;99.90;;;;;;5021141;28;20022;-85
2023/03/13 07:34:06;;;;;;;4.53;2.17;;;-0.20;99.90;;;;;;5019973;28;19910;-85
2023/03/13 07:36:34;;;;;;;3.78;2.13;;;0.00;99.90;;;;;;5019981;28;20045;-85
2023/03/13 07:39:00;;;;;;;4.20;1.58;;;0.10;99.90;;;;;;5024909;28;20079;-83
2023/03/13 07:41:26;;;;;;;4.28;2.55;;;0.20;99.90;;;;;;5026686;28;20462;-83
2023/03/13 07:43:52;;;;;;;7.95;1.95;;;0.10;98.80;;;;;;5021146;28;20058;-81
2023/03/13 07:46:18;;;;;;;7.78;2.78;;;0.10;98.90;;;;;;5035665;28;20017;-88
2023/03/13 07:48:45;;;;;;;9.60;3.35;;;0.20;97.90;;;;;;5024612;28;20065;-86
2023/03/13 07:51:17;;;;;;;2.28;1.95;;;0.30;97.70;;;;;;5020501;28;20026;-89
2023/03/13 07:53:46;;;;;;;5.25;2.10;;;0.30;97.30;;;;;;5020227;28;20025;-85
2023/03/13 07:56:14;;;;;;;2.88;1.75;;;0.30;97.80;;;;;;5019197;28;20029;-86
2023/03/13 07:58:41;;;;;;;2.80;1.90;;;0.30;97.10;;;;;;5020793;28;20499;-87
2023/03/13 08:01:25;;;;;;;3.55;1.92;;;0.30;98.10;;;;;;5018797;28;20120;-85
2023/03/13 08:03:53;;;;;;;6.70;1.95;;;0.30;98.30;;;;;;5034198;28;20093;-88
2023/03/13 08:06:26;;;;;;;2.50;1.95;;;0.30;98.10;;;;;;5023839;28;20422;-88
2023/03/13 08:09:06;;;;;;;2.58;1.73;;;0.30;98.00;;;;;;5023336;28;20030;-88
2023/03/13 08:14:49;;;;;;;5.05;2.20;;;0.40;97.10;;;;;;4998974;28;20038;-84
2023/03/13 08:17:18;;;;;;;2.63;1.60;;;0.50;97.20;;;;;;5007130;28;20062;-85
2023/03/13 08:19:55;;;;;;;6.47;2.70;;;0.60;97.10;;;;;;5004008;28;20045;-84
2023/03/13 08:22:21;;;;;;;;;;;0.70;97.50;;;;;;5008986;28;20046;-85
2023/03/13 08:24:47;;;;;;;4.32;2.28;;;0.80;98.20;;;;;;5011727;28;19913;-86
2023/03/13 08:27:39;;;;;;;4.90;2.25;;;0.90;97.90;;;;;;5013226;28;20061;-83
2023/03/13 08:30:25;;;;;;;4.32;1.95;;;1.00;97.60;;;;;;5025142;28;20387;-83
2023/03/13 08:33:01;;;;;;;3.63;2.03;;;1.00;96.90;;;;;;5026652;28;20022;-87
2023/03/13 08:36:51;;;;;;;;;;;;;;;;;;;;;
2023/03/13 08:39:33;;;;;;;4.82;4.32;;;1.20;97.40;;;;;;5029330;28;20472;-84
2023/03/13 08:42:22;;;;;;;1.85;1.40;;;1.30;97.70;;;;;;5007794;28;20045;-86
2023/03/13 08:44:48;;;;;;;3.60;2.58;;;1.50;99.10;;;;;;5017994;28;20090;-88
2023/03/13 08:47:33;;;;;;;5.20;3.22;;;1.80;99.00;;;;;;5041586;28;20479;-88
2023/03/13 08:53:26;;;;;;;7.07;2.63;;;2.90;96.80;;;;;;5016161;28;20041;-91
2023/03/13 08:56:15;;;;;;;2.15;1.38;;;3.10;96.20;;;;;;5032221;28;20029;-90
2023/03/13 08:58:44;;;;;;;2.47;1.52;;;3.10;93.60;;;;;;5035312;28;20038;-88
2023/03/13 09:01:30;;;;;;;2.63;1.45;;;3.00;90.90;;;;;;5019995;28;20026;-90
2023/03/13 09:04:16;;;;;;;3.00;1.80;;;3.00;91.70;;;;;;5035275;28;20073;-87
2023/03/13 09:06:58;;;;;;;3.20;2.40;;;3.10;90.60;;;;;;5021335;28;20086;-86
2023/03/13 09:09:35;;;;;;;2.83;1.73;;;3.10;89.60;;;;;;5010616;28;20053;-90
2023/03/13 09:12:15;;;;;;;8.50;1.88;;;2.90;90.10;;;;;;5016975;28;20037;-88
2023/03/13 09:14:43;;;;;;;7.07;2.60;;;2.60;90.10;;;;;;5028756;28;20034;-89
2023/03/13 09:21:04;;;;;;;3.70;1.40;;;3.00;91.10;;;;;;4956121;28;20485;-88
2023/03/13 09:23:31;;;;;;;2.30;1.70;;;2.60;90.10;;;;;;4940482;28;20246;-85
2023/03/13 09:26:05;;;;;;;3.42;1.58;;;2.10;89.50;;;;;;4943752;29;20103;-89
2023/03/13 09:28:59;;;;;;;4.20;1.58;;;2.00;89.40;;;;;;4933836;29;20127;-88
2023/03/13 09:31:41;;;;;;;1.77;1.20;;;1.90;89.60;;;;;;4951543;28;20048;-88
2023/03/13 09:34:26;;;;;;;;;;;;;;;;;;;;;
2023/03/13 09:37:37;;;;;;;5.30;1.90;;;1.50;88.40;;;;;;4960860;28;20159;-86
2023/03/13 09:39:56;;;;;;;5.93;2.20;;;1.60;89.90;;;;;;4943097;29;20642;-86
2023/03/13 09:42:26;;;;;;;;;;;2.10;90.10;;;;;;4944740;29;20027;-84
2023/03/13 09:45:34;;;;;;;;;;;;;;;;;;;;;
2023/03/13 09:48:24;;;;;;;6.95;2.20;;;2.60;89.80;;;;;;4944662;29;20031;-88
2023/03/13 09:51:23;;;;;;;5.20;1.60;;;2.90;88.40;;;;;;4955040;29;20110;-85
2023/03/13 09:54:35;;;;;;;1.98;1.60;;;2.30;85.40;;;;;;4921703;29;20130;-85
2023/03/13 09:57:24;;;;;;;3.38;1.83;;;1.70;86.70;;;;;;4937280;29;20070;-85
2023/03/13 10:00:11;;;;;;;4.50;2.05;;;1.90;89.70;;;;;;4946583;28;20067;-83
2023/03/13 10:02:54;;;;;;;7.53;3.25;;;2.70;90.40;;;;;;4962422;28;20133;-86
2023/03/13 10:05:26;;;;;;;4.65;2.42;;;3.60;90.00;;;;;;4977722;28;20141;-85
2023/03/13 10:08:17;;;;;;;8.52;4.78;;;3.60;84.90;;;;;;5000163;28;20022;-88
2023/03/13 10:10:48;;;;;;;8.82;5.43;;;3.10;85.40;;;;;;4984103;28;20043;-84
2023/03/13 10:13:35;;;;;;;7.32;3.50;;;2.50;85.10;;;;;;4988409;28;20027;-86
2023/03/13 10:16:08;;;;;;;7.05;4.63;;;2.10;86.00;;;;;;4974548;28;20491;-84
2023/03/13 10:18:35;;;;;;;5.35;2.90;;;1.60;86.40;;;;;;5005092;28;20034;-85
2023/03/13 10:21:19;;;;;;;7.30;2.95;;;1.10;88.10;;;;;;5024746;28;20185;-85
2023/03/13 10:24:01;;;;;;;4.97;2.88;;;1.00;89.70;;;;;;5030210;28;20028;-86
2023/03/13 10:26:34;;;;;;;3.13;1.98;;;1.00;90.00;;;;;;5016484;28;20122;-86
2023/03/13 10:29:20;;;;;;;2.38;2.00;;;1.00;90.00;;;;;;5010616;28;20365;-85
2023/03/13 10:31:57;;;;;;;3.75;3.00;;;0.60;89.40;;;;;;5003786;28;20061;-86
2023/03/13 10:34:25;;;;;;;7.47;3.63;;;0.40;90.30;;;;;;5000735;28;20022;-86
2023/03/13 10:36:54;;;;;;;;;;;0.30;90.80;;;;;;5002924;28;20042;-87
2023/03/13 10:39:25;;;;;;;4.22;2.60;;;0.40;91.00;;;;;;4999962;28;19949;-86
2023/03/13 10:42:09;;;;;;;3.90;2.80;;;0.40;91.40;;;;;;5018561;28;20155;-85
2023/03/13 10:44:42;;;;;;;4.60;2.25;;;0.70;91.40;;;;;;5014040;28;20030;-84
2023/03/13 10:47:12;;;;;;;6.38;2.55;;;0.90;90.80;;;;;;5014677;28;20014;-84
2023/03/13 10:49:50;;;;;;;8.15;3.35;;;0.80;90.70;;;;;;5007452;28;20030;-83
2023/03/13 10:52:42;;;;;;;;;;;1.10;91.10;;;;;;5009794;28;20092;-84
2023/03/13 10:55:41;;;;;;;4.88;2.40;;;1.40;91.00;;;;;;5018671;28;19916;-84
2023/03/13 10:58:22;;;;;;;6.78;2.80;;;1.50;89.90;;;;;;5010840;28;20027;-84
2023/03/13 11:00:49;;;;;;;4.78;2.92;;;1.20;89.00;;;;;;5024659;28;20046;-82
2023/03/13 11:03:23;;;;;;;4.63;2.30;;;1.00;90.00;;;;;;5028397;28;20013;-83
2023/03/13 11:06:01;;;;;;;6.93;3.92;;;0.90;90.20;;;;;;5022589;28;20030;-82
2023/03/13 11:08:33;;;;;;;7.25;3.25;;;0.60;90.40;;;;;;5010853;28;20084;-83
2023/03/13 11:11:05;;;;;;;6.45;3.13;;;0.70;90.60;;;;;;5026434;28;20057;-82
2023/03/13 11:13:51;;;;;;;3.60;2.58;;;0.60;90.60;;;;;;5020583;28;20026;-82
2023/03/13 11:16:31;;;;;;;3.55;1.95;;;0.50;90.50;;;;;;5035171;28;20026;-83
2023/03/13 11:19:40;;;;;;;3.70;2.30;;;0.30;90.60;;;;;;5032813;28;20027;-83
2023/03/13 11:22:29;;;;;;;1.80;1.48;;;0.20;91.30;;;;;;5004468;28;20029;-85
2023/03/13 11:25:19;;;;;;;2.95;2.38;;;0.10;91.00;;;;;;5020856;28;20022;-84
2023/03/13 11:28:03;;;;;;;5.18;3.15;;;0.10;91.10;;;;;;5025527;28;20029;-81
2023/03/13 11:30:44;;;;;;;7.95;3.42;;;0.20;91.40;;;;;;5012043;28;20081;-83
2023/03/13 11:33:19;;;;;;;4.55;2.88;;;0.30;91.40;;;;;;5038555;28;20107;-84
2023/03/13 11:36:10;;;;;;;4.90;2.70;;;0.40;91.40;;;;;;5037458;28;20025;-86
2023/03/13 11:39:04;;;;;;;6.88;3.30;;;0.40;91.10;;;;;;5040503;28;20026;-84
2023/03/13 11:41:43;;;;;;;3.08;2.15;;;0.40;91.40;;;;;;5030942;28;20095;-85
2023/03/13 11:44:51;;;;;;;4.28;2.67;;;0.50;91.60;;;;;;5023300;28;20482;-83
2023/03/13 11:47:29;;;;;;;5.95;2.83;;;0.60;91.70;;;;;;5029958;28;20026;-85
2023/03/13 11:50:22;;;;;;;3.13;2.75;;;0.50;91.40;;;;;;5024150;28;20033;-83
2023/03/13 11:53:28;;;;;;;7.18;2.70;;;0.50;91.10;;;;;;5031436;28;20026;-85
2023/03/13 11:56:38;;;;;;;4.20;3.00;;;0.50;91.50;;;;;;5027451;28;20116;-85
2023/03/13 11:59:38;;;;;;;4.25;3.70;;;0.70;91.70;;;;;;5024950;28;20076;-84
2023/03/13 12:02:48;;;;;;;5.07;2.72;;;0.60;91.40;;;;;;5007066;28;20448;-84
2023/03/13 12:05:18;;;;;;;5.40;2.83;;;0.60;91.50;;;;;;5024186;28;20377;-85
2023/03/13 12:08:06;;;;;;;5.95;3.70;;;0.60;91.50;;;;;;5025810;28;20021;-85
2023/03/13 12:10:45;;;;;;;4.57;2.80;;;0.60;91.50;;;;;;5027886;28;20053;-85
2023/03/13 12:13:32;;;;;;;7.30;3.58;;;0.60;91.10;;;;;;5019284;28;20038;-83
2023/03/13 12:16:05;;;;;;;11.77;4.03;;;0.50;91.50;;;;;;5020411;28;20029;-87
2023/03/13 12:18:35;;;;;;;11.07;4.22;;;0.70;91.60;;;;;;5033694;28;20038;-84
2023/03/13 12:21:21;;;;;;;7.40;3.55;;;0.80;91.80;;;;;;5023666;28;20033;-84
2023/03/13 12:23:56;;;;;;;8.00;3.70;;;0.90;91.80;;;;;;5020820;28;20487;-83
2023/03/13 12:26:40;;;;;;;4.68;3.50;;;0.90;92.00;;;;;;5020895;28;20024;-84
2023/03/13 12:29:44;;;;;;;5.18;3.50;;;0.80;92.30;;;;;;5021093;28;20132;-85
2023/03/13 12:32:33;;;;;;;7.13;2.97;;;0.70;92.80;;;;;;4996785;28;20038;-83
2023/03/13 12:35:02;;;;;;;7.50;3.15;;;0.60;93.20;;;;;;5024454;28;20427;-84
2023/03/13 12:37:46;;;;;;;4.57;2.83;;;0.70;92.80;;;;;;5020839;28;20073;-86
2023/03/13 12:40:43;;;;;;;5.45;2.95;;;0.60;92.20;;;;;;5022978;28;20026;-84
2023/03/13 12:43:45;;;;;;;3.45;2.80;;;0.50;91.80;;;;;;5020540;28;20029;-83
2023/03/13 12:46:19;;;;;;;5.55;3.17;;;0.40;91.80;;;;;;5000545;28;20032;-83
2023/03/13 12:49:14;;;;;;;4.50;3.38;;;0.50;91.70;;;;;;5018079;28;20391;-84
2023/03/13 12:52:05;;;;;;;4.68;2.75;;;0.50;91.50;;;;;;5007212;28;20172;-82
2023/03/13 12:55:06;;;;;;;4.57;2.40;;;0.60;91.50;;;;;;5020740;28;20042;-83
2023/03/13 12:57:50;;;;;;;4.05;2.72;;;0.50;91.40;;;;;;5028067;28;20026;-83
2023/03/13 13:00:25;;;;;;;3.67;2.10;;;0.50;91.20;;;;;;5020888;28;20040;-82
2023/03/13 13:03:24;;;;;;;5.00;2.90;;;0.50;91.30;;;;;;5022796;28;20033;-85
2023/03/13 13:06:13;;;;;;;2.97;2.47;;;0.50;91.70;;;;;;5016929;28;20030;-84
2023/03/13 13:09:01;;;;;;;3.00;2.10;;;0.40;91.50;;;;;;5003280;28;20045;-80
2023/03/13 13:11:33;;;;;;;2.83;1.95;;;0.40;91.40;;;;;;5013824;28;20394;-82
2023/03/13 13:14:01;;;;;;;2.35;2.00;;;0.30;91.70;;;;;;5016747;28;20033;-81
2023/03/13 13:16:27;;;;;;;;;;;0.30;91.80;;;;;;5016659;28;20022;-82
2023/03/13 13:18:53;;;;;;;2.47;1.70;;;0.40;92.00;;;;;;5018597;28;20362;-80
2023/03/13 13:21:22;;;;;;;2.22;1.65;;;0.40;92.00;;;;;;5018177;28;20038;-80
2023/03/13 13:23:53;;;;;;;2.53;2.15;;;0.30;90.80;;;;;;5020569;28;20025;-82
2023/03/13 13:26:32;;;;;;;4.20;1.75;;;0.20;90.40;;;;;;5023850;28;20033;-82
2023/03/13 13:29:24;;;;;;;2.95;1.50;;;0.10;90.60;;;;;;5006131;28;20080;-82
2023/03/13 13:31:50;;;;;;;5.45;2.92;;;0.10;90.50;;;;;;5016461;28;20087;-80
2023/03/13 13:34:33;;;;;;;3.88;1.70;;;0.00;90.50;;;;;;5015137;28;20491;-81
2023/03/13 13:37:23;;;;;;;1.98;1.52;;;0.00;90.60;;;;;;5016330;28;20113;-82
2023/03/13 13:39:53;;;;;;;2.92;1.40;;;0.00;90.70;;;;;;5020407;28;20137;-84